Porthill, Idaho
Current Conditions -  °F | °C
As of 7:55 AM on Sunday 23 Nov 2014 (Local Time) from K65S Reporting Station
Broken Clouds Broken Clouds  
Wind Chill: 26°   Ceiling: 12000
Heat Index: 32°   Visibility: 10mi
Dew Point: 28°   Wind: 6mph
Humidity: 87%   Direction: 200°SSW
Pressure: 30.08"   Gusts: NA
Location:  49°N, 116.5°W
Report Text: K65S 231555Z AUTO 20005KT 10SM SCT014 SCT070 BKN120 00/M02 A3008 RMK AO2
Loading
Personal Weather Stations






























Interactive Weather Map New forecast layout! Learn more

10-Day Weather Forecast

Advertisements
Track Severe Weather on mobile